createdAt,value
2022-11-11T00:01:15.549Z,68.72
2022-11-11T00:04:00.930Z,68.11
2022-11-11T00:06:47.663Z,67.71
2022-11-11T00:09:33.285Z,68.62
2022-11-11T00:12:19.191Z,70.18
2022-11-11T00:15:05.483Z,69.30
2022-11-11T00:18:09.259Z,69.29
2022-11-11T00:21:12.952Z,70.47
2022-11-11T00:24:16.961Z,71.53
2022-11-11T00:27:03.181Z,70.99
2022-11-11T00:29:48.401Z,72.11
2022-11-11T00:32:34.067Z,70.58
2022-11-11T00:35:38.095Z,70.04
2022-11-11T00:38:42.387Z,70.04
2022-11-11T00:41:27.832Z,69.70
2022-11-11T00:44:13.539Z,69.28
2022-11-11T00:47:17.495Z,68.80
2022-11-11T00:50:26.500Z,68.18
2022-11-11T00:53:14.486Z,68.61
2022-11-11T00:56:00.132Z,68.99
2022-11-11T00:58:45.603Z,69.57
2022-11-11T01:01:31.241Z,70.59
2022-11-11T01:04:17.145Z,70.83
2022-11-11T01:07:02.690Z,70.33
2022-11-11T01:09:48.108Z,70.76
2022-11-11T01:12:33.534Z,70.32
2022-11-11T01:15:19.113Z,70.25
2022-11-11T01:18:05.201Z,69.43
2022-11-11T01:21:05.759Z,68.90
2022-11-11T01:23:53.430Z,70.15
2022-11-11T01:26:38.793Z,69.89
2022-11-11T01:29:24.171Z,71.19
2022-11-11T01:32:09.590Z,72.10
2022-11-11T01:34:54.961Z,70.72
2022-11-11T01:37:40.252Z,70.74
2022-11-11T01:40:25.882Z,70.37
2022-11-11T01:43:11.377Z,69.13
2022-11-11T01:46:03.720Z,69.31
2022-11-11T01:49:12.496Z,69.88
2022-11-11T01:52:22.960Z,69.35
2022-11-11T01:55:15.451Z,68.88
2022-11-11T01:58:06.298Z,68.64
2022-11-11T02:00:51.744Z,69.79
2022-11-11T02:03:40.859Z,69.88
2022-11-11T02:06:28.586Z,69.20
2022-11-11T02:09:14.325Z,69.37
2022-11-11T02:12:24.337Z,69.23
2022-11-11T02:15:10.125Z,70.13
2022-11-11T02:17:55.327Z,69.13
2022-11-11T02:20:45.183Z,69.47
2022-11-11T02:23:33.765Z,70.49
2022-11-11T02:26:19.896Z,69.72
2022-11-11T02:29:12.694Z,69.44
2022-11-11T02:31:58.521Z,69.30
2022-11-11T02:34:44.233Z,69.79
2022-11-11T02:37:29.785Z,69.39
2022-11-11T02:40:23.660Z,70.08
2022-11-11T02:43:09.081Z,70.48
2022-11-11T02:45:54.730Z,71.43
2022-11-11T02:48:40.575Z,72.19
2022-11-11T02:51:25.879Z,71.47
2022-11-11T02:54:11.564Z,71.93
2022-11-11T02:57:09.425Z,72.02
2022-11-11T02:59:57.866Z,72.47
2022-11-11T03:02:43.577Z,73.30
2022-11-11T03:05:29.016Z,72.49
2022-11-11T03:08:14.240Z,72.61
2022-11-11T03:10:59.344Z,72.04
2022-11-11T03:13:44.982Z,71.48
2022-11-11T03:16:49.311Z,72.26
2022-11-11T03:19:35.545Z,73.24
2022-11-11T03:25:38.690Z,73.46
2022-11-11T03:28:27.062Z,72.32
2022-11-11T03:31:12.333Z,72.22
2022-11-11T03:34:17.772Z,72.53
2022-11-11T03:37:25.728Z,70.35
2022-11-11T03:40:11.538Z,70.79
2022-11-11T03:43:03.873Z,70.08
2022-11-11T03:45:51.311Z,70.14
2022-11-11T03:48:37.045Z,70.19
2022-11-11T03:51:22.374Z,69.85
2022-11-11T03:54:07.753Z,70.08
2022-11-11T03:57:13.451Z,71.48
2022-11-11T03:59:58.693Z,70.53
2022-11-11T04:03:02.226Z,71.07
2022-11-11T04:06:05.734Z,70.42
2022-11-11T04:09:09.932Z,71.36
2022-11-11T04:11:55.011Z,70.64
2022-11-11T04:14:58.858Z,71.70
2022-11-11T04:17:44.788Z,70.72
2022-11-11T04:20:48.824Z,71.35
2022-11-11T04:23:33.903Z,69.88
2022-11-11T04:26:19.530Z,70.24
2022-11-11T04:29:23.858Z,69.63
2022-11-11T04:32:35.654Z,70.62
2022-11-11T04:35:21.242Z,70.62
2022-11-11T04:38:25.082Z,69.48
2022-11-11T04:41:11.302Z,70.61
2022-11-11T04:44:15.206Z,68.74
2022-11-11T04:47:00.467Z,70.79
2022-11-11T04:49:46.260Z,70.93
2022-11-11T04:52:32.095Z,70.37
2022-11-11T04:55:36.846Z,69.84
2022-11-11T04:58:25.155Z,71.05
2022-11-11T05:01:10.854Z,69.67
2022-11-11T05:03:56.173Z,69.53
2022-11-11T05:07:00.225Z,70.75
2022-11-11T05:09:45.731Z,69.95
2022-11-11T05:12:32.581Z,69.89
2022-11-11T05:15:36.339Z,68.11
2022-11-11T05:18:40.472Z,68.62
2022-11-11T05:21:28.255Z,69.31
2022-11-11T05:24:32.479Z,68.78
2022-11-11T05:27:18.227Z,68.48
2022-11-11T05:30:06.293Z,68.09
2022-11-11T05:32:52.180Z,69.72
2022-11-11T05:35:37.502Z,70.05
2022-11-11T05:38:23.061Z,70.29
2022-11-11T05:41:09.720Z,70.23
2022-11-11T05:43:54.910Z,69.67
2022-11-11T05:46:40.335Z,69.17
2022-11-11T05:49:26.228Z,69.89
2022-11-11T05:52:13.830Z,68.09
2022-11-11T05:54:59.460Z,68.21
2022-11-11T05:57:45.184Z,66.61
2022-11-11T06:00:30.334Z,66.10
2022-11-11T06:03:15.893Z,64.67
2022-11-11T06:06:01.315Z,62.91
2022-11-11T06:08:46.781Z,62.29
2022-11-11T06:11:33.177Z,62.35
2022-11-11T06:14:18.938Z,62.83
2022-11-11T06:17:04.456Z,62.32
2022-11-11T06:19:49.757Z,61.27
2022-11-11T06:22:56.032Z,60.38
2022-11-11T06:26:00.038Z,60.77
2022-11-11T06:28:47.292Z,61.18
2022-11-11T06:31:32.801Z,60.73
2022-11-11T06:34:18.235Z,61.17
2022-11-11T06:37:03.611Z,60.34
2022-11-11T06:39:48.974Z,60.66
2022-11-11T06:42:38.195Z,59.97
2022-11-11T06:45:28.439Z,61.75
2022-11-11T06:48:13.786Z,63.24
2022-11-11T06:51:05.093Z,65.00
2022-11-11T06:53:50.506Z,65.11
2022-11-11T06:56:35.741Z,63.91
2022-11-11T06:59:21.037Z,64.72
2022-11-11T07:02:06.743Z,65.91
2022-11-11T07:04:52.104Z,66.69
2022-11-11T07:07:37.337Z,68.94
2022-11-11T07:10:22.897Z,68.40
2022-11-11T07:13:08.641Z,67.84
2022-11-11T07:15:53.872Z,66.11
2022-11-11T07:18:39.233Z,63.82
2022-11-11T07:21:24.441Z,62.98
2022-11-11T07:24:09.979Z,61.72
2022-11-11T07:26:55.386Z,61.13
2022-11-11T07:29:40.826Z,60.47
2022-11-11T07:32:26.185Z,59.46
2022-11-11T07:35:11.638Z,59.03
2022-11-11T07:37:57.057Z,59.02
2022-11-11T07:40:42.373Z,60.10
2022-11-11T07:43:27.677Z,59.88
2022-11-11T07:46:13.035Z,56.65
2022-11-11T07:48:58.509Z,56.80
2022-11-11T07:51:43.883Z,54.22
2022-11-11T07:54:29.106Z,54.17
2022-11-11T07:57:14.764Z,52.18
2022-11-11T07:59:59.970Z,53.05
2022-11-11T08:02:49.354Z,52.36
2022-11-11T08:05:34.731Z,53.02
2022-11-11T08:08:25.706Z,54.14
2022-11-11T08:11:12.189Z,55.52
2022-11-11T08:13:57.790Z,56.36
2022-11-11T08:16:43.068Z,57.32
2022-11-11T08:19:28.474Z,57.61
2022-11-11T08:22:14.088Z,57.97
2022-11-11T08:25:04.406Z,57.64
2022-11-11T08:27:56.694Z,60.09
2022-11-11T08:30:42.450Z,59.49
2022-11-11T08:33:44.024Z,59.52
2022-11-11T08:36:29.834Z,59.35
2022-11-11T08:39:15.267Z,60.13
2022-11-11T08:42:00.685Z,59.96
2022-11-11T08:44:47.125Z,62.34
2022-11-11T08:47:32.552Z,62.08
2022-11-11T08:50:18.597Z,61.36
2022-11-11T08:53:04.154Z,60.77
2022-11-11T08:55:49.606Z,61.11
2022-11-11T08:58:35.378Z,60.96
2022-11-11T09:01:20.884Z,61.43
2022-11-11T09:04:30.079Z,61.14
2022-11-11T09:07:12.527Z,62.65
2022-11-11T09:09:57.732Z,62.83
2022-11-11T09:12:43.077Z,63.76
2022-11-11T09:15:29.593Z,63.97
2022-11-11T09:18:15.073Z,64.22
2022-11-11T09:21:00.901Z,63.36
2022-11-11T09:23:46.018Z,62.80
2022-11-11T09:26:31.424Z,62.99
2022-11-11T09:29:17.521Z,63.50
2022-11-11T09:32:03.057Z,63.58
2022-11-11T09:34:48.305Z,63.19
2022-11-11T09:37:33.750Z,64.15
2022-11-11T09:40:21.781Z,63.59
2022-11-11T09:43:33.132Z,62.85
2022-11-11T09:46:44.562Z,63.79
2022-11-11T09:49:42.400Z,63.66
2022-11-11T09:52:37.392Z,64.40
2022-11-11T09:55:38.670Z,63.06
2022-11-11T09:58:43.746Z,65.05
2022-11-11T10:01:36.753Z,63.48
2022-11-11T10:04:24.840Z,64.39
2022-11-11T10:07:18.408Z,63.42
2022-11-11T10:10:13.557Z,64.34
2022-11-11T10:12:59.913Z,62.79
2022-11-11T10:16:23.923Z,63.27
2022-11-11T10:19:15.650Z,62.92
2022-11-11T10:22:12.757Z,61.69
2022-11-11T10:25:21.073Z,59.58
2022-11-11T10:28:08.146Z,59.41
2022-11-11T10:30:55.657Z,58.54
2022-11-11T10:33:54.830Z,59.01
2022-11-11T10:36:46.405Z,58.65
2022-11-11T10:40:00.903Z,58.67
2022-11-11T10:42:46.037Z,58.46
2022-11-11T10:46:02.712Z,58.08
2022-11-11T10:48:57.392Z,58.49
2022-11-11T10:51:51.769Z,58.01
2022-11-11T10:54:55.264Z,59.65
2022-11-11T10:58:01.937Z,58.62
2022-11-11T11:00:50.510Z,58.98
2022-11-11T11:03:53.805Z,58.50
2022-11-11T11:06:44.352Z,60.27
2022-11-11T11:09:45.841Z,60.21
2022-11-11T11:12:47.169Z,60.71
2022-11-11T11:15:35.862Z,60.32
2022-11-11T11:18:21.423Z,61.34
2022-11-11T11:21:08.643Z,61.38
2022-11-11T11:23:53.924Z,60.31
2022-11-11T11:26:48.614Z,60.09
2022-11-11T11:29:43.122Z,59.43
2022-11-11T11:32:30.927Z,58.97
2022-11-11T11:35:37.784Z,59.66
2022-11-11T11:38:40.927Z,60.47
2022-11-11T11:41:50.286Z,61.27
2022-11-11T11:44:40.294Z,59.64
2022-11-11T11:47:34.819Z,60.13
2022-11-11T11:50:38.818Z,59.24
2022-11-11T11:53:57.163Z,59.79
2022-11-11T11:56:45.875Z,60.31
2022-11-11T11:59:49.724Z,59.24
2022-11-11T12:02:58.385Z,60.59
2022-11-11T12:05:50.682Z,59.14
2022-11-11T12:09:00.873Z,60.66
2022-11-11T12:11:46.274Z,61.68
2022-11-11T12:15:22.752Z,60.00
2022-11-11T12:18:33.582Z,60.19
2022-11-11T12:21:24.558Z,59.55
2022-11-11T12:24:10.033Z,60.49
2022-11-11T12:27:14.184Z,60.37
2022-11-11T12:30:14.305Z,59.72
2022-11-11T12:33:06.328Z,58.47
2022-11-11T12:36:17.907Z,59.10
2022-11-11T12:39:12.514Z,59.74
2022-11-11T12:42:26.782Z,59.25
2022-11-11T12:45:22.068Z,58.38
2022-11-11T12:48:32.749Z,59.15
2022-11-11T12:51:36.748Z,58.96
2022-11-11T12:54:43.514Z,58.97
2022-11-11T12:57:34.713Z,57.77
2022-11-11T13:00:22.214Z,59.41
2022-11-11T13:04:01.673Z,59.09
2022-11-11T13:07:04.347Z,58.52
2022-11-11T13:09:56.434Z,58.85
2022-11-11T13:12:55.481Z,58.92
2022-11-11T13:15:41.099Z,58.67
2022-11-11T13:19:12.101Z,59.61
2022-11-11T13:22:13.088Z,58.76
2022-11-11T13:25:04.238Z,58.48
2022-11-11T13:27:55.400Z,59.08
2022-11-11T13:30:53.010Z,58.95
2022-11-11T13:33:49.174Z,58.64
2022-11-11T13:36:41.203Z,59.22
2022-11-11T13:39:34.572Z,59.13
2022-11-11T13:42:26.556Z,59.79
2022-11-11T13:45:26.870Z,59.91
2022-11-11T13:48:31.421Z,59.67
2022-11-11T13:51:19.928Z,60.78
2022-11-11T13:54:20.317Z,59.22
2022-11-11T13:57:15.529Z,60.32
2022-11-11T14:00:24.667Z,60.78
2022-11-11T14:03:22.880Z,60.96
2022-11-11T14:06:14.584Z,61.28
2022-11-11T14:09:00.302Z,60.96
2022-11-11T14:11:45.725Z,60.54
2022-11-11T14:14:37.231Z,61.70
2022-11-11T14:17:23.214Z,61.04
2022-11-11T14:20:42.074Z,61.43
2022-11-11T14:23:30.685Z,62.00
2022-11-11T14:26:24.382Z,60.92
2022-11-11T14:29:19.664Z,61.72
2022-11-11T14:32:14.202Z,61.36
2022-11-11T14:35:19.994Z,61.22
2022-11-11T14:38:28.359Z,61.82
2022-11-11T14:41:53.537Z,62.11
2022-11-11T14:44:41.154Z,61.59
2022-11-11T14:47:42.119Z,62.03
2022-11-11T14:50:33.324Z,62.16
2022-11-11T14:53:21.002Z,61.16
2022-11-11T14:56:16.592Z,61.46
2022-11-11T14:59:07.528Z,61.37
2022-11-11T15:01:55.239Z,62.03
2022-11-11T15:04:41.418Z,61.87
2022-11-11T15:08:05.566Z,61.79
2022-11-11T15:11:06.342Z,61.38
2022-11-11T15:14:19.073Z,61.96
2022-11-11T15:17:35.888Z,61.68
2022-11-11T15:20:52.906Z,60.83
2022-11-11T15:23:49.398Z,61.94
2022-11-11T15:27:00.925Z,61.06
2022-11-11T15:30:07.864Z,61.28
2022-11-11T15:33:12.159Z,60.88
2022-11-11T15:36:16.310Z,61.79
2022-11-11T15:39:13.071Z,62.64
2022-11-11T15:41:58.832Z,64.06
2022-11-11T15:44:44.678Z,63.07
2022-11-11T15:47:35.787Z,63.50
2022-11-11T15:50:23.948Z,63.24
2022-11-11T15:53:12.418Z,62.72
2022-11-11T15:56:00.650Z,62.90
2022-11-11T15:58:46.125Z,63.62
2022-11-11T16:01:31.919Z,63.30
2022-11-11T16:04:54.073Z,62.20
2022-11-11T16:07:32.117Z,61.73
2022-11-11T16:10:29.777Z,62.44
2022-11-11T16:13:14.977Z,61.93
2022-11-11T16:16:09.324Z,62.63
2022-11-11T16:19:03.581Z,62.70
2022-11-11T16:21:57.927Z,63.12
2022-11-11T16:24:45.873Z,61.85
2022-11-11T16:27:33.422Z,62.41
2022-11-11T16:30:24.793Z,61.65
2022-11-11T16:33:40.735Z,61.02
2022-11-11T16:36:26.666Z,60.97
2022-11-11T16:39:19.338Z,61.65
2022-11-11T16:42:08.207Z,61.34
2022-11-11T16:45:01.295Z,60.98
2022-11-11T16:47:49.247Z,61.67
2022-11-11T16:50:53.219Z,61.77
2022-11-11T16:53:46.833Z,61.62
2022-11-11T16:56:33.940Z,61.03
2022-11-11T16:59:34.326Z,61.36
2022-11-11T17:02:22.467Z,61.44
2022-11-11T17:05:08.630Z,61.31
2022-11-11T17:07:54.493Z,61.16
2022-11-11T17:10:40.717Z,61.81
2022-11-11T17:13:27.376Z,62.00
2022-11-11T17:16:14.110Z,62.23
2022-11-11T17:19:03.991Z,62.05
2022-11-11T17:21:49.306Z,61.95
2022-11-11T17:24:34.762Z,62.17
2022-11-11T17:27:20.006Z,61.78
2022-11-11T17:30:06.368Z,61.84
2022-11-11T17:32:51.839Z,61.89
2022-11-11T17:35:37.293Z,62.14
2022-11-11T17:38:22.621Z,62.74
2022-11-11T17:41:08.175Z,62.20
2022-11-11T17:43:53.888Z,62.81
2022-11-11T17:46:39.209Z,63.30
2022-11-11T17:49:50.021Z,62.85
2022-11-11T17:52:30.404Z,63.67
2022-11-11T17:55:16.026Z,63.78
2022-11-11T17:58:01.748Z,64.29
2022-11-11T18:00:47.023Z,64.16
2022-11-11T18:03:32.394Z,64.19
2022-11-11T18:06:17.892Z,63.99
2022-11-11T18:09:03.206Z,64.78
2022-11-11T18:11:48.590Z,64.87
2022-11-11T18:14:33.929Z,64.64
2022-11-11T18:17:19.594Z,64.74
2022-11-11T18:20:05.218Z,65.35
2022-11-11T18:22:56.864Z,65.39
2022-11-11T18:25:42.886Z,65.57
2022-11-11T18:28:33.514Z,65.89
2022-11-11T18:31:18.902Z,65.84
2022-11-11T18:34:04.518Z,66.82
2022-11-11T18:36:52.412Z,65.85
2022-11-11T18:39:37.854Z,65.76
2022-11-11T18:42:23.160Z,66.05
2022-11-11T18:45:08.992Z,66.07
2022-11-11T18:47:54.453Z,65.49
2022-11-11T18:50:39.781Z,66.04
2022-11-11T18:53:25.758Z,66.33
2022-11-11T18:56:20.173Z,66.35
2022-11-11T18:59:05.634Z,66.48
2022-11-11T19:01:54.747Z,66.97
2022-11-11T19:04:41.031Z,67.40
2022-11-11T19:07:26.460Z,67.47
2022-11-11T19:10:11.861Z,66.96
2022-11-11T19:12:56.874Z,67.07
2022-11-11T19:15:42.102Z,66.83
2022-11-11T19:18:27.464Z,66.85
2022-11-11T19:21:17.399Z,66.87
2022-11-11T19:24:03.715Z,65.44
2022-11-11T19:26:51.062Z,66.52
2022-11-11T19:29:36.225Z,66.27
2022-11-11T19:32:21.585Z,66.24
2022-11-11T19:35:07.400Z,66.61
2022-11-11T19:37:52.511Z,67.23
2022-11-11T19:40:38.009Z,65.96
2022-11-11T19:43:24.869Z,65.07
2022-11-11T19:46:15.731Z,65.36
2022-11-11T19:49:00.957Z,65.70
2022-11-11T19:51:46.294Z,65.44
2022-11-11T19:54:31.686Z,65.70
2022-11-11T19:57:17.066Z,65.41
2022-11-11T20:00:02.476Z,65.47
2022-11-11T20:02:47.789Z,65.47
2022-11-11T20:05:37.376Z,65.71
2022-11-11T20:08:22.536Z,65.43
2022-11-11T20:11:09.384Z,65.78
2022-11-11T20:13:56.011Z,64.38
2022-11-11T20:16:41.274Z,64.07
2022-11-11T20:19:26.483Z,64.21
2022-11-11T20:22:12.082Z,63.93
2022-11-11T20:24:57.647Z,63.89
2022-11-11T20:27:43.233Z,62.75
2022-11-11T20:30:28.601Z,62.27
2022-11-11T20:33:14.346Z,61.30
2022-11-11T20:36:04.530Z,61.14
2022-11-11T20:38:50.107Z,61.22
2022-11-11T20:41:36.211Z,61.90
2022-11-11T20:44:21.862Z,64.20
2022-11-11T20:47:08.562Z,63.89
2022-11-11T20:49:54.209Z,62.67
2022-11-11T20:52:39.522Z,63.70
2022-11-11T20:55:24.846Z,63.08
2022-11-11T20:58:10.223Z,63.05
2022-11-11T21:01:01.633Z,63.33
2022-11-11T21:03:47.021Z,63.36
2022-11-11T21:06:32.636Z,67.15
2022-11-11T21:09:18.107Z,68.55
2022-11-11T21:12:03.916Z,70.10
2022-11-11T21:14:49.247Z,70.21
2022-11-11T21:17:34.798Z,70.41
2022-11-11T21:20:20.570Z,64.43
2022-11-11T21:23:05.829Z,63.14
2022-11-11T21:25:51.161Z,62.39
2022-11-11T21:28:37.958Z,62.26
2022-11-11T21:31:26.741Z,62.54
2022-11-11T21:34:13.003Z,62.52
2022-11-11T21:36:58.692Z,62.07
2022-11-11T21:39:43.997Z,61.08
2022-11-11T21:42:29.414Z,60.73
2022-11-11T21:45:14.805Z,60.90
2022-11-11T21:48:00.221Z,61.92
2022-11-11T21:50:45.610Z,62.77
2022-11-11T21:53:31.099Z,62.04
2022-11-11T21:56:16.687Z,62.84
2022-11-11T21:59:04.701Z,63.41
2022-11-11T22:01:50.056Z,62.68
2022-11-11T22:04:35.484Z,64.61
2022-11-11T22:07:21.530Z,65.19
2022-11-11T22:10:07.363Z,66.52
2022-11-11T22:12:52.489Z,68.32
2022-11-11T22:15:38.584Z,66.12
2022-11-11T22:18:23.986Z,67.02
2022-11-11T22:21:12.430Z,67.25
2022-11-11T22:24:00.372Z,66.14
2022-11-11T22:26:45.887Z,65.97
2022-11-11T22:29:31.553Z,65.47
2022-11-11T22:32:16.856Z,66.73
2022-11-11T22:35:02.200Z,65.66
2022-11-11T22:37:47.481Z,64.23
2022-11-11T22:40:32.872Z,65.44
2022-11-11T22:43:38.115Z,64.50
2022-11-11T22:46:24.945Z,64.00
2022-11-11T22:49:12.241Z,63.69
2022-11-11T22:51:57.335Z,63.12
2022-11-11T22:54:42.726Z,63.28
2022-11-11T22:57:30.826Z,63.10
2022-11-11T23:00:16.626Z,63.88
2022-11-11T23:03:02.654Z,63.69
2022-11-11T23:05:47.769Z,61.89
2022-11-11T23:08:33.165Z,62.21
2022-11-11T23:11:24.099Z,63.16
2022-11-11T23:14:15.767Z,62.01
2022-11-11T23:17:00.761Z,61.19
2022-11-11T23:19:45.886Z,60.81
2022-11-11T23:22:31.426Z,59.97
2022-11-11T23:25:16.780Z,61.59
2022-11-11T23:28:02.060Z,61.99
2022-11-11T23:30:48.005Z,62.64
2022-11-11T23:33:35.068Z,62.96
2022-11-11T23:36:23.229Z,62.79
2022-11-11T23:39:08.551Z,63.90
2022-11-11T23:41:53.847Z,62.94
2022-11-11T23:44:39.054Z,62.29
2022-11-11T23:47:24.494Z,63.68
2022-11-11T23:50:10.055Z,61.78
2022-11-11T23:52:55.164Z,63.83
2022-11-11T23:55:40.740Z,61.58
2022-11-11T23:58:26.730Z,62.44
